Time;durP1;ratioP1;P1;durP2;ratioP2;P2;SDS_P1;SDS_P2;PMS_P1;PMS_P2;Temp;Humidity;BMP_temperature;BMP_pressure;BME280_temperature;BME280_humidity;BME280_pressure;Samples;Min_cycle;Max_cycle;Signal;HPM_P1;HPM_P2
2022/11/25 00:00:19;;;;;;;1.70;0.60;;;;;;;17.29;54.93;96469.75;10440605;28;20506;-29
2022/11/25 00:05:20;;;;;;;2.03;0.60;;;;;;;17.41;54.07;96477.34;10431891;28;20211;-29
2022/11/25 00:10:20;;;;;;;0.80;0.50;;;;;;;17.45;53.89;96473.16;10438375;28;20037;-29
2022/11/25 00:15:20;;;;;;;1.93;0.80;;;;;;;17.45;53.47;96480.75;10439285;28;20389;-29
2022/11/25 00:20:21;;;;;;;1.87;0.87;;;;;;;17.34;54.07;96482.41;10440909;28;20498;-29
2022/11/25 00:25:21;;;;;;;0.60;0.50;;;;;;;17.32;54.16;96482.38;10439588;28;20029;-30
2022/11/25 00:30:22;;;;;;;0.97;0.57;;;;;;;17.28;54.25;96485.78;10433858;28;20028;-29
2022/11/25 00:35:22;;;;;;;1.60;0.60;;;;;;;17.29;54.64;96494.19;10440352;28;20217;-29
2022/11/25 00:40:22;;;;;;;1.43;0.60;;;;;;;17.29;54.38;96484.94;10438229;28;20044;-29
2022/11/25 00:45:23;;;;;;;2.10;0.87;;;;;;;17.28;54.24;96492.50;10445159;28;20037;-29
2022/11/25 00:50:23;;;;;;;0.80;0.60;;;;;;;17.29;54.48;96496.72;10440312;28;20025;-29
2022/11/25 00:55:23;;;;;;;0.80;0.50;;;;;;;17.26;54.37;96494.19;10437972;28;20559;-29
2022/11/25 01:00:24;;;;;;;1.23;0.53;;;;;;;17.19;53.84;96484.91;10435706;28;20487;-29
2022/11/25 01:05:24;;;;;;;0.85;0.63;;;;;;;17.24;54.45;96485.78;10431447;28;20561;-29
2022/11/25 01:10:27;;;;;;;1.23;0.50;;;;;;;17.24;54.44;96485.78;10438093;28;20029;-29
2022/11/25 01:15:27;;;;;;;0.60;0.40;;;;;;;17.30;54.40;96473.97;10437145;28;20492;-30
2022/11/25 01:20:28;;;;;;;0.70;0.50;;;;;;;17.38;54.20;96476.50;10435866;28;20287;-29
2022/11/25 01:25:28;;;;;;;1.07;0.60;;;;;;;17.40;53.26;96472.31;10433901;28;20287;-29
2022/11/25 01:30:29;;;;;;;1.47;0.47;;;;;;;17.34;53.73;96477.34;10440805;28;20042;-29
2022/11/25 01:35:29;;;;;;;1.45;0.45;;;;;;;17.28;53.97;96475.66;10438200;28;20155;-29
2022/11/25 01:40:30;;;;;;;1.20;0.40;;;;;;;17.21;54.09;96460.44;10432398;28;20041;-28
2022/11/25 01:45:35;;;;;;;1.90;0.60;;;;;;;17.23;53.81;96476.50;10437788;28;20044;-29
2022/11/25 01:50:36;;;;;;;1.08;0.98;;;;;;;17.26;53.83;96466.38;10434992;28;20788;-29
2022/11/25 01:55:41;;;;;;;0.80;0.40;;;;;;;17.23;53.54;96473.97;10434093;28;20025;-29
2022/11/25 02:00:49;;;;;;;0.63;0.43;;;;;;;17.22;53.11;96483.22;10431473;28;20150;-29
2022/11/25 02:05:56;;;;;;;1.70;0.68;;;;;;;17.22;53.53;96472.25;10432156;28;20037;-29
2022/11/25 02:10:57;;;;;;;1.02;0.40;;;;;;;17.23;53.75;96476.50;10434281;28;20076;-29
2022/11/25 02:15:57;;;;;;;1.40;0.50;;;;;;;17.13;53.73;96467.19;10441286;28;20071;-33
2022/11/25 02:20:58;;;;;;;0.70;0.38;;;;;;;17.21;53.78;96480.69;10437361;28;20075;-29
2022/11/25 02:25:59;;;;;;;0.95;0.50;;;;;;;17.23;54.01;96479.03;10426253;28;20154;-29
2022/11/25 02:31:00;;;;;;;0.45;0.32;;;;;;;17.30;54.24;96479.03;10428627;28;20506;-29
2022/11/25 02:36:04;;;;;;;0.50;0.40;;;;;;;17.24;53.66;96463.81;10433991;28;20060;-30
2022/11/25 02:41:08;;;;;;;0.88;0.55;;;;;;;17.33;53.57;96473.13;10435970;28;20041;-30
2022/11/25 02:46:11;;;;;;;2.38;0.57;;;;;;;17.31;54.35;96490.00;10436953;28;20074;-30
2022/11/25 02:51:15;;;;;;;0.73;0.40;;;;;;;17.28;54.43;96467.19;10433794;28;20032;-30
2022/11/25 02:56:17;;;;;;;1.00;0.50;;;;;;;17.25;54.68;96457.09;10434489;28;20151;-29
2022/11/25 03:01:19;;;;;;;1.40;0.30;;;;;;;17.26;54.50;96461.31;10432167;28;20395;-30
2022/11/25 03:06:19;;;;;;;0.85;0.40;;;;;;;17.23;54.70;96453.72;10427584;28;20025;-29
2022/11/25 03:11:20;;;;;;;2.20;0.70;;;;;;;17.23;55.16;96458.78;10432968;28;20036;-29
2022/11/25 03:16:21;;;;;;;0.47;0.30;;;;;;;17.23;54.88;96456.25;10433802;28;20167;-31
2022/11/25 03:21:21;;;;;;;0.45;0.30;;;;;;;17.23;54.80;96448.66;10434499;28;20033;-29
2022/11/25 03:26:21;;;;;;;0.73;0.50;;;;;;;17.24;54.75;96457.94;10439690;28;20033;-28
2022/11/25 03:31:22;;;;;;;1.00;0.40;;;;;;;17.22;54.86;96452.88;10445383;28;20029;-31
2022/11/25 03:36:22;;;;;;;0.80;0.40;;;;;;;17.25;54.66;96462.16;10441193;28;20033;-29
2022/11/25 03:41:23;;;;;;;0.68;0.40;;;;;;;17.26;55.38;96462.13;10441651;28;20406;-29
2022/11/25 03:46:24;;;;;;;0.63;0.25;;;;;;;17.31;55.24;96463.00;10436689;28;20449;-28
2022/11/25 03:51:25;;;;;;;0.60;0.40;;;;;;;17.33;55.09;96471.41;10439510;28;20163;-30
2022/11/25 03:56:26;;;;;;;1.73;0.50;;;;;;;17.34;54.90;96469.75;10440674;28;20021;-28
2022/11/25 04:01:27;;;;;;;2.40;0.50;;;;;;;17.28;55.15;96459.63;10436538;28;20030;-29
2022/11/25 04:06:27;;;;;;;0.20;0.20;;;;;;;17.25;55.21;96457.09;10432072;28;20029;-28
2022/11/25 04:16:47;;;;;;;0.38;0.30;;;;;;;17.23;55.37;96463.84;10437781;28;20424;-29
2022/11/25 04:21:48;;;;;;;1.05;0.60;;;;;;;17.21;55.59;96455.38;10440803;28;20395;-30
2022/11/25 04:26:49;;;;;;;1.33;0.65;;;;;;;17.21;55.18;96456.25;10436064;28;20120;-29
2022/11/25 04:31:49;;;;;;;0.63;0.40;;;;;;;17.22;55.67;96446.94;10434301;28;20037;-29
2022/11/25 04:36:50;;;;;;;1.70;0.55;;;;;;;17.21;55.45;96447.78;10436523;28;20056;-30
2022/11/25 04:42:30;;;;;;;1.27;0.60;;;;;;;17.24;55.12;96450.34;10440416;28;20079;-30
2022/11/25 04:47:12;;;;;;;0.40;0.40;;;;;;;17.26;55.15;96453.72;10434262;28;20095;-29
2022/11/25 04:52:12;;;;;;;1.80;0.50;;;;;;;17.25;55.23;96452.03;10433629;28;20457;-29
2022/11/25 04:57:14;;;;;;;0.70;0.40;;;;;;;17.32;55.32;96448.66;10438199;28;20033;-29
2022/11/25 05:02:22;;;;;;;2.05;0.30;;;;;;;17.38;54.52;96453.75;10434184;28;20125;-29
2022/11/25 05:07:30;;;;;;;0.43;0.32;;;;;;;17.39;55.09;96471.47;10435678;28;20033;-33
2022/11/25 05:12:31;;;;;;;0.77;0.40;;;;;;;17.39;54.89;96473.13;10439297;28;20238;-29
2022/11/25 05:17:33;;;;;;;0.82;0.28;;;;;;;17.41;55.02;96496.78;10432434;28;20043;-29
2022/11/25 05:22:34;;;;;;;0.55;0.30;;;;;;;17.42;54.92;96506.88;10437533;28;20032;-30
2022/11/25 05:27:36;;;;;;;1.42;0.40;;;;;;;17.44;55.13;96514.47;10434193;28;20124;-30
2022/11/25 05:32:41;;;;;;;1.52;0.38;;;;;;;17.35;55.08;96519.50;10431037;28;20479;-30
2022/11/25 05:37:44;;;;;;;0.65;0.30;;;;;;;17.40;55.14;96538.13;10435060;28;20464;-30
2022/11/25 05:42:44;;;;;;;1.20;0.63;;;;;;;17.37;54.74;96522.91;10431890;28;20025;-30
2022/11/25 05:47:45;;;;;;;0.75;0.40;;;;;;;17.43;54.45;96533.91;10439720;28;20514;-31
2022/11/25 05:52:50;;;;;;;1.40;0.95;;;;;;;17.44;54.68;96539.78;10428188;28;20022;-30
2022/11/25 05:57:51;;;;;;;0.93;0.50;;;;;;;17.35;54.24;96539.75;10436690;28;20022;-29
2022/11/25 06:02:52;;;;;;;1.30;0.70;;;;;;;17.39;54.95;96546.53;10429245;28;20022;-30
2022/11/25 06:07:54;;;;;;;3.15;0.60;;;;;;;17.42;54.89;96551.59;10434753;28;20116;-29
2022/11/25 06:12:56;;;;;;;3.97;0.70;;;;;;;17.48;54.63;96533.91;10435020;28;20051;-30
2022/11/25 06:17:57;;;;;;;3.42;1.02;;;;;;;17.32;55.02;96514.44;10400222;28;20090;-33
2022/11/25 06:23:00;;;;;;;3.03;0.95;;;;;;;17.45;55.55;96546.53;10427480;28;20036;-30
2022/11/25 06:28:05;;;;;;;3.22;1.38;;;;;;;17.39;55.41;96541.47;10431065;28;20033;-29
2022/11/25 06:33:06;;;;;;;3.85;1.40;;;;;;;17.41;55.18;96554.97;10425468;28;20379;-31
2022/11/25 06:38:07;;;;;;;5.68;1.67;;;;;;;17.30;53.06;96561.66;10431941;28;20025;-31
2022/11/25 06:43:07;;;;;;;15.63;2.70;;;;;;;17.13;52.95;96568.34;10438164;28;20079;-30
2022/11/25 06:48:08;;;;;;;10.07;1.60;;;;;;;17.28;55.01;96570.94;10414459;28;20041;-29
2022/11/25 06:53:08;;;;;;;6.60;1.80;;;;;;;17.29;54.48;96580.22;10384869;28;20112;-30
2022/11/25 06:58:08;;;;;;;4.27;1.43;;;;;;;17.27;54.83;96581.91;10390058;28;20029;-29
2022/11/25 07:03:09;;;;;;;3.65;1.30;;;;;;;17.26;55.14;96588.63;10390500;28;20288;-30
2022/11/25 07:08:10;;;;;;;11.38;2.85;;;;;;;17.25;55.14;96596.25;10386496;28;20133;-30
2022/11/25 07:13:10;;;;;;;4.60;1.40;;;;;;;17.24;55.16;96607.19;10384681;28;20037;-30
2022/11/25 07:18:11;;;;;;;5.60;1.63;;;;;;;17.29;54.59;96600.44;10387086;28;20314;-29
2022/11/25 07:23:11;;;;;;;2.83;1.48;;;;;;;17.30;54.80;96602.13;10388818;28;20033;-29
2022/11/25 07:28:12;;;;;;;4.17;1.40;;;;;;;17.34;55.07;96619.03;10392838;28;22334;-31
2022/11/25 07:33:12;;;;;;;4.13;1.38;;;;;;;17.17;52.87;96625.72;10382012;28;20291;-30
2022/11/25 07:38:13;;;;;;;6.47;1.40;;;;;;;17.21;54.26;96630.81;10384444;28;20661;-30
2022/11/25 07:43:13;;;;;;;11.83;3.10;;;;;;;17.19;55.07;96640.06;10403565;28;20291;-31
2022/11/25 07:48:13;;;;;;;8.73;2.00;;;;;;;17.24;54.81;96647.69;10403749;28;20637;-28
2022/11/25 07:53:14;;;;;;;3.47;1.23;;;;;;;17.16;54.66;96647.63;10401458;28;21122;-29
2022/11/25 07:58:14;;;;;;;6.10;1.80;;;;;;;17.23;54.62;96663.72;10403559;28;20719;-29
2022/11/25 08:03:14;;;;;;;4.27;1.57;;;;;;;17.23;55.00;96666.25;10404746;28;20502;-29
2022/11/25 08:08:15;;;;;;;2.17;1.30;;;;;;;17.13;54.88;96655.22;10410253;28;20094;-31
2022/11/25 08:13:15;;;;;;;3.00;1.40;;;;;;;17.21;55.53;96683.94;10409622;28;20071;-29
2022/11/25 08:18:16;;;;;;;3.70;1.60;;;;;;;17.21;55.51;96689.00;10410756;28;20043;-30
2022/11/25 08:23:16;;;;;;;5.00;1.65;;;;;;;17.25;55.73;96688.16;10409390;28;20043;-29
2022/11/25 08:28:16;;;;;;;2.93;1.30;;;;;;;17.10;55.75;96702.41;10403345;28;20103;-28
2022/11/25 08:33:17;;;;;;;4.25;1.40;;;;;;;17.19;54.87;96707.53;10411452;28;20291;-29
2022/11/25 08:38:17;;;;;;;3.80;1.53;;;;;;;17.27;56.50;96713.47;10408643;28;20043;-29
2022/11/25 08:43:20;;;;;;;8.80;1.80;;;;;;;17.26;55.37;96714.31;10408111;28;20118;-29
2022/11/25 08:48:21;;;;;;;5.53;1.77;;;;;;;17.28;56.15;96716.00;10403932;28;20037;-29
2022/11/25 08:53:21;;;;;;;5.03;2.03;;;;;;;17.26;56.58;96717.66;10408495;28;20059;-29
2022/11/25 08:58:21;;;;;;;5.97;1.30;;;;;;;17.23;55.85;96721.91;10412738;28;20291;-30
2022/11/25 09:03:22;;;;;;;3.65;1.63;;;;;;;17.18;56.73;96719.34;10406817;28;20789;-31
2022/11/25 09:08:22;;;;;;;5.60;1.43;;;;;;;17.27;56.23;96728.66;10406401;28;20041;-30
2022/11/25 09:13:23;;;;;;;4.55;1.70;;;;;;;17.27;56.78;96729.50;10408988;28;20303;-33
2022/11/25 09:18:25;;;;;;;4.20;1.50;;;;;;;17.25;57.06;96740.44;10407736;28;20063;-32
2022/11/25 09:23:25;;;;;;;6.70;1.85;;;;;;;17.26;57.22;96739.59;10412115;28;20031;-29
2022/11/25 09:28:26;;;;;;;3.15;1.40;;;;;;;17.14;57.10;96731.97;10411832;28;20506;-30
2022/11/25 09:33:26;;;;;;;4.43;1.35;;;;;;;17.26;57.56;96748.03;10409677;28;20486;-30
2022/11/25 09:38:27;;;;;;;3.73;1.20;;;;;;;17.28;57.66;96753.09;10408951;28;20087;-32
2022/11/25 09:49:29;;;;;;;4.00;1.40;;;;;;;17.34;57.55;96750.63;10403804;28;20153;-30
2022/11/25 09:54:40;;;;;;;4.25;1.30;;;;;;;17.33;58.54;96734.56;10411659;28;20633;-31
2022/11/25 10:00:14;;;;;;;4.32;1.73;;;;;;;17.36;57.28;96728.72;10404325;28;20037;-29
2022/11/25 10:05:20;;;;;;;3.65;1.52;;;;;;;17.34;58.12;96725.31;10408455;28;20116;-30
2022/11/25 10:10:25;;;;;;;3.35;1.70;;;;;;;17.31;57.81;96730.38;10406096;28;20127;-29
2022/11/25 10:15:30;;;;;;;1.88;1.20;;;;;;;17.30;57.68;96713.47;10403635;28;20060;-30
2022/11/25 10:20:35;;;;;;;3.80;1.15;;;;;;;17.35;56.93;96724.47;10409705;28;20037;-29
2022/11/25 10:25:40;;;;;;;3.53;1.40;;;;;;;17.30;57.41;96721.06;10436285;28;20028;-29
2022/11/25 10:30:51;;;;;;;3.05;1.20;;;;;;;17.30;58.01;96723.59;10435450;28;20044;-30
2022/11/25 10:36:05;;;;;;;4.25;1.55;;;;;;;17.29;57.96;96722.75;10437666;28;20032;-30
2022/11/25 10:41:08;;;;;;;3.25;1.52;;;;;;;17.28;58.06;96720.22;10433310;28;20399;-29
2022/11/25 10:46:36;;;;;;;5.03;1.73;;;;;;;17.28;58.07;96725.28;10433707;28;20162;-29
2022/11/25 10:51:43;;;;;;;3.33;1.30;;;;;;;17.26;57.99;96722.72;10432074;28;20399;-29
2022/11/25 10:56:55;;;;;;;;;;;;;;;17.26;58.20;96732.03;10435976;28;20025;-30
2022/11/25 11:02:14;;;;;;;2.67;1.10;;;;;;;17.30;57.60;96733.72;10435645;28;20015;-29
2022/11/25 11:07:15;;;;;;;4.95;1.58;;;;;;;17.33;58.02;96739.63;10432955;28;20044;-29
2022/11/25 11:12:27;;;;;;;1.80;0.80;;;;;;;17.37;57.77;96745.59;10436821;28;20043;-30
2022/11/25 11:17:32;;;;;;;3.08;1.10;;;;;;;17.38;57.84;96757.41;10427399;28;20384;-29
2022/11/25 11:22:34;;;;;;;2.42;1.17;;;;;;;17.39;57.92;96759.09;10431125;28;20025;-29
2022/11/25 11:27:36;;;;;;;1.58;1.10;;;;;;;17.38;57.68;96767.53;10436000;28;20029;-30
2022/11/25 11:32:41;;;;;;;5.60;1.27;;;;;;;17.38;58.08;96763.31;10436454;28;20391;-29
2022/11/25 11:37:44;;;;;;;2.88;0.77;;;;;;;17.26;56.61;96773.31;10435372;28;20032;-29
2022/11/25 11:43:22;;;;;;;10.80;1.10;;;;;;;17.19;57.94;96775.81;10424810;28;20029;-29
2022/11/25 11:48:44;;;;;;;11.55;1.67;;;;;;;17.37;56.82;96781.03;10426802;28;20516;-29
2022/11/25 11:54:07;;;;;;;1.70;0.90;;;;;;;17.38;57.76;96790.31;10395528;28;20051;-30
2022/11/25 11:59:11;;;;;;;3.28;1.27;;;;;;;17.43;57.23;96791.19;10394787;28;20060;-30
2022/11/25 12:04:20;;;;;;;5.95;1.50;;;;;;;17.45;57.04;96790.34;10402867;28;20051;-29
2022/11/25 12:09:26;;;;;;;3.15;1.10;;;;;;;17.45;58.00;96790.34;10400975;28;20033;-29
2022/11/25 12:14:49;;;;;;;6.68;1.63;;;;;;;17.46;56.97;96801.31;10396855;28;20044;-32
2022/11/25 12:20:12;;;;;;;3.53;0.90;;;;;;;17.52;57.78;96798.81;10394303;28;20044;-32
2022/11/25 12:25:22;;;;;;;7.05;1.45;;;;;;;17.55;57.30;96801.34;10395469;28;20037;-29
2022/11/25 12:30:25;;;;;;;4.05;1.42;;;;;;;17.56;56.82;96810.66;10391683;28;20036;-30
2022/11/25 12:35:47;;;;;;;4.05;1.27;;;;;;;17.54;56.95;96818.25;10396806;28;20036;-30
2022/11/25 12:41:12;;;;;;;2.67;1.42;;;;;;;17.46;57.70;96821.56;10396366;28;20051;-31
2022/11/25 12:46:34;;;;;;;4.00;1.45;;;;;;;17.51;57.52;96835.94;10398780;28;20044;-30
2022/11/25 12:51:50;;;;;;;4.93;2.78;;;;;;;17.51;57.33;96845.22;10413889;28;20090;-29
2022/11/25 12:56:59;;;;;;;7.28;2.53;;;;;;;17.52;58.66;96851.97;10403677;28;20055;-31
2022/11/25 13:02:18;;;;;;;4.93;2.17;;;;;;;17.58;58.60;96846.97;10400110;28;20035;-29
2022/11/25 13:07:30;;;;;;;7.75;1.70;;;;;;;17.59;58.86;96848.66;10394504;28;20059;-31
2022/11/25 13:13:06;;;;;;;9.32;2.50;;;;;;;17.59;59.26;96849.47;10387387;28;20421;-30
2022/11/25 13:18:19;;;;;;;9.37;2.10;;;;;;;17.62;59.31;96851.19;10391021;28;21957;-30
2022/11/25 13:23:28;;;;;;;8.48;1.67;;;;;;;17.64;58.24;96867.22;10397084;28;20036;-31
2022/11/25 13:28:36;;;;;;;5.35;1.77;;;;;;;17.59;58.60;96874.78;10393848;28;20021;-31
2022/11/25 13:33:43;;;;;;;3.88;1.48;;;;;;;17.74;59.25;96896.84;10394382;28;21552;-29
2022/11/25 13:38:49;;;;;;;5.20;1.58;;;;;;;17.87;59.00;96896.06;10397830;28;20037;-29
2022/11/25 13:44:24;;;;;;;8.43;1.80;;;;;;;17.88;58.92;96903.66;10391598;28;20037;-32
2022/11/25 13:49:47;;;;;;;2.65;1.30;;;;;;;17.88;58.90;96915.47;10395712;28;20581;-30
2022/11/25 13:54:48;;;;;;;4.93;1.80;;;;;;;17.86;59.24;96920.56;10372212;28;20530;-33
2022/11/25 13:59:52;;;;;;;11.97;1.80;;;;;;;17.85;59.10;96923.06;10395607;28;20048;-32
2022/11/25 14:05:01;;;;;;;5.05;1.20;;;;;;;17.82;59.55;96925.59;10391935;28;20041;-31
2022/11/25 14:10:19;;;;;;;4.22;1.70;;;;;;;17.79;59.32;96933.16;10393073;28;20041;-29
2022/11/25 14:15:46;;;;;;;4.25;1.58;;;;;;;17.76;59.89;96933.16;10386013;28;20052;-31
2022/11/25 14:20:46;;;;;;;5.97;3.00;;;;;;;17.76;59.86;96943.28;10394592;28;20045;-30
2022/11/25 14:25:50;;;;;;;11.95;3.08;;;;;;;17.79;60.19;96950.88;10391757;28;20648;-30
2022/11/25 14:30:54;;;;;;;8.63;3.85;;;;;;;17.78;59.40;96949.19;10400066;28;20029;-29
2022/11/25 14:36:02;;;;;;;8.95;2.95;;;;;;;17.80;59.86;96957.63;10433128;28;20036;-29
2022/11/25 14:41:13;;;;;;;9.85;3.05;;;;;;;17.77;59.69;96960.16;10434525;28;20219;-30
2022/11/25 14:46:21;;;;;;;4.72;2.72;;;;;;;17.78;60.33;96979.56;10406568;28;20554;-29
2022/11/25 14:51:22;;;;;;;6.50;2.97;;;;;;;17.74;58.46;96982.94;10379672;28;20079;-32
2022/11/25 14:56:29;;;;;;;4.50;2.13;;;;;;;17.62;57.23;96992.97;10383448;28;20083;-32
2022/11/25 15:01:32;;;;;;;5.15;2.65;;;;;;;17.65;57.65;97015.78;10382025;28;20040;-28
2022/11/25 15:06:37;;;;;;;6.50;3.00;;;;;;;17.64;58.64;97016.59;10383939;28;20511;-30
2022/11/25 15:11:38;;;;;;;4.32;2.38;;;;;;;17.69;58.24;97030.16;10386562;28;20036;-30
2022/11/25 15:16:42;;;;;;;8.90;3.20;;;;;;;17.68;59.37;97034.34;10378112;28;20021;-29
2022/11/25 15:21:43;;;;;;;13.40;3.85;;;;;;;17.68;59.40;97048.72;10440574;28;20920;-29
2022/11/25 15:26:50;;;;;;;8.02;3.33;;;;;;;17.75;59.43;97053.00;10443711;28;20530;-31
2022/11/25 15:31:52;;;;;;;5.63;3.03;;;;;;;17.80;59.42;97054.72;10444034;28;20038;-29
2022/11/25 15:36:52;;;;;;;8.25;3.22;;;;;;;17.82;58.36;97070.78;10436011;28;20044;-29
2022/11/25 15:42:01;;;;;;;9.20;3.77;;;;;;;17.81;58.30;97063.16;10439027;28;20047;-30
2022/11/25 15:47:04;;;;;;;8.98;3.35;;;;;;;17.86;59.15;97086.84;10445772;28;20313;-30
2022/11/25 15:52:14;;;;;;;5.88;3.05;;;;;;;17.88;59.21;97087.72;10438480;28;20083;-30
2022/11/25 15:57:16;;;;;;;6.10;3.10;;;;;;;17.87;58.34;97088.53;10436859;28;20079;-29
2022/11/25 16:02:31;;;;;;;7.50;4.05;;;;;;;17.87;58.63;97101.22;10433730;28;20033;-30
2022/11/25 16:07:32;;;;;;;8.10;3.45;;;;;;;17.84;58.69;97094.44;10440880;28;20476;-30
2022/11/25 16:12:32;;;;;;;5.17;2.73;;;;;;;17.84;58.65;97094.44;10442876;28;20017;-27
2022/11/25 16:17:36;;;;;;;6.63;2.87;;;;;;;17.83;58.71;97109.63;10439947;28;20082;-29
2022/11/25 16:22:36;;;;;;;10.00;3.25;;;;;;;17.82;59.09;97105.41;10444374;28;20030;-31
2022/11/25 16:27:37;;;;;;;7.03;2.93;;;;;;;17.82;58.45;97118.06;10441250;28;20037;-30
2022/11/25 16:32:37;;;;;;;6.72;2.97;;;;;;;17.81;58.70;97118.88;10440797;28;20295;-29
2022/11/25 16:37:38;;;;;;;4.20;2.30;;;;;;;17.79;58.83;97115.50;10439752;28;20502;-29
2022/11/25 16:42:39;;;;;;;6.83;2.50;;;;;;;17.79;58.78;97130.69;10436482;28;20040;-30
2022/11/25 16:47:39;;;;;;;5.57;2.55;;;;;;;17.79;58.71;97135.75;10445129;28;20033;-30
2022/11/25 16:52:39;;;;;;;5.50;2.40;;;;;;;17.77;58.66;97143.34;10434115;28;20079;-29
2022/11/25 16:57:41;;;;;;;4.80;2.17;;;;;;;17.77;58.62;97145.03;10442876;28;20041;-30
2022/11/25 17:02:42;;;;;;;5.00;2.80;;;;;;;17.77;59.01;97153.50;10442617;28;20115;-29
2022/11/25 17:07:42;;;;;;;3.35;2.20;;;;;;;17.77;58.95;97167.81;10434018;28;20039;-30
2022/11/25 17:12:44;;;;;;;3.53;1.92;;;;;;;17.76;58.84;97172.03;10439215;28;20041;-30
2022/11/25 17:17:46;;;;;;;4.15;2.10;;;;;;;17.77;58.73;97167.81;10435261;28;20065;-29
2022/11/25 17:22:47;;;;;;;5.22;2.10;;;;;;;17.76;58.89;97183.84;10440728;28;20505;-31
2022/11/25 17:27:48;;;;;;;2.80;1.92;;;;;;;17.75;58.68;97184.69;10435835;28;20448;-30
2022/11/25 17:32:57;;;;;;;4.22;1.83;;;;;;;17.73;59.03;97199.03;10439028;28;20029;-29
2022/11/25 17:37:59;;;;;;;3.35;2.10;;;;;;;17.70;59.12;97216.69;10437316;28;20108;-30
2022/11/25 17:42:59;;;;;;;4.97;2.08;;;;;;;17.71;59.06;97219.25;10441174;28;20056;-30
2022/11/25 17:48:00;;;;;;;4.15;2.17;;;;;;;17.72;58.92;97227.69;10437269;28;20038;-30
2022/11/25 17:53:00;;;;;;;3.13;1.40;;;;;;;17.71;58.94;97238.66;10433951;28;20037;-30
2022/11/25 17:58:01;;;;;;;3.53;2.00;;;;;;;17.70;59.08;97235.28;10439594;28;20961;-29
2022/11/25 18:03:01;;;;;;;3.33;1.60;;;;;;;17.76;58.93;97252.22;10436653;28;20059;-30
2022/11/25 18:08:02;;;;;;;2.83;1.60;;;;;;;17.76;59.23;97253.06;10437814;28;20094;-30
2022/11/25 18:13:04;;;;;;;3.55;1.80;;;;;;;17.78;58.90;97270.81;10437724;28;20055;-29
2022/11/25 18:18:17;;;;;;;2.97;2.00;;;;;;;17.75;58.92;97275.84;10428927;28;20027;-29
2022/11/25 18:23:18;;;;;;;3.40;2.05;;;;;;;17.71;59.26;97279.16;10437610;28;20025;-30
2022/11/25 18:28:23;;;;;;;1.67;1.38;;;;;;;17.71;59.11;97280.03;10437486;28;20327;-29
2022/11/25 18:33:23;;;;;;;2.58;1.75;;;;;;;17.71;58.73;97294.38;10435155;28;20041;-30
2022/11/25 18:38:24;;;;;;;4.15;1.77;;;;;;;17.70;58.88;97293.53;10436066;28;20033;-30
2022/11/25 18:43:26;;;;;;;3.00;1.83;;;;;;;17.57;58.00;97298.44;10434515;28;20063;-30
2022/11/25 18:48:26;;;;;;;9.52;2.00;;;;;;;17.61;58.54;97300.16;10437006;28;20033;-30
2022/11/25 18:53:27;;;;;;;3.95;1.55;;;;;;;17.69;57.57;97301.09;10430236;28;20033;-30
2022/11/25 18:58:27;;;;;;;5.50;2.58;;;;;;;17.76;59.23;97318.06;10437880;28;20586;-29
2022/11/25 19:03:28;;;;;;;7.10;2.40;;;;;;;17.82;59.08;97323.22;10425750;28;20028;-31
2022/11/25 19:08:28;;;;;;;4.93;3.03;;;;;;;17.77;59.71;97324.84;10420955;28;20029;-30
2022/11/25 19:13:34;;;;;;;17.23;3.10;;;;;;;17.80;59.71;97350.19;10442664;28;20774;-29
2022/11/25 19:18:34;;;;;;;8.13;2.70;;;;;;;17.80;59.51;97355.25;10433395;28;20028;-29
2022/11/25 19:23:35;;;;;;;10.00;3.97;;;;;;;17.81;59.50;97355.28;10432231;28;20040;-31
2022/11/25 19:28:35;;;;;;;6.55;2.55;;;;;;;17.79;59.74;97362.03;10443785;28;20068;-29
2022/11/25 19:33:40;;;;;;;6.00;2.80;;;;;;;17.80;60.05;97380.59;10436401;28;20452;-27
2022/11/25 19:38:41;;;;;;;5.13;2.50;;;;;;;17.77;59.97;97381.44;10430101;28;20300;-30
2022/11/25 19:43:41;;;;;;;4.87;2.60;;;;;;;17.79;60.08;97389.03;10438913;28;20136;-30
2022/11/25 19:48:41;;;;;;;6.50;2.53;;;;;;;17.80;60.11;97405.91;10427744;28;20025;-34
2022/11/25 19:53:43;;;;;;;4.37;2.97;;;;;;;17.83;59.71;97408.50;10438002;28;20041;-30
2022/11/25 19:58:43;;;;;;;5.45;2.97;;;;;;;17.84;60.07;97423.69;10443209;28;20283;-29
2022/11/25 20:03:44;;;;;;;8.13;3.47;;;;;;;17.81;60.24;97420.28;10434397;28;20418;-30
2022/11/25 20:08:45;;;;;;;5.22;2.90;;;;;;;17.83;60.17;97429.59;10442516;28;20108;-30
2022/11/25 20:13:46;;;;;;;4.22;2.80;;;;;;;17.84;60.10;97443.13;10439654;28;20029;-30
2022/11/25 20:18:49;;;;;;;6.30;3.45;;;;;;;17.75;60.38;97459.03;10433381;28;20033;-32
2022/11/25 20:23:50;;;;;;;6.45;3.67;;;;;;;17.83;58.93;97461.69;10432757;28;20030;-30
2022/11/25 20:28:50;;;;;;;9.82;4.00;;;;;;;17.84;59.96;97476.06;10446731;28;20037;-28
2022/11/25 20:33:51;;;;;;;6.87;3.23;;;;;;;17.81;60.18;97478.53;10443636;28;20029;-30
2022/11/25 20:38:53;;;;;;;8.23;3.87;;;;;;;17.86;60.15;97479.47;10449162;28;20206;-31
2022/11/25 20:43:55;;;;;;;7.07;4.00;;;;;;;17.85;60.36;97477.75;10442575;28;20060;-29
2022/11/25 20:48:59;;;;;;;7.50;3.65;;;;;;;17.86;60.71;97487.94;10446909;28;20037;-29
2022/11/25 20:54:00;;;;;;;5.13;3.63;;;;;;;17.91;60.62;97503.19;10430974;28;20392;-29
2022/11/25 20:59:00;;;;;;;7.60;3.78;;;;;;;17.84;61.09;97504.75;10438750;28;20033;-29
2022/11/25 21:04:00;;;;;;;4.60;3.37;;;;;;;17.84;60.86;97509.81;10432263;28;20129;-29
2022/11/25 21:09:01;;;;;;;5.43;3.50;;;;;;;17.78;61.22;97503.81;10438473;28;20055;-30
2022/11/25 21:14:01;;;;;;;7.53;3.92;;;;;;;17.76;61.00;97506.31;10438089;28;20326;-29
2022/11/25 21:19:02;;;;;;;7.78;3.47;;;;;;;17.79;60.97;97515.66;10433157;28;20558;-29
2022/11/25 21:24:18;;;;;;;4.80;3.83;;;;;;;17.80;60.98;97519.88;10433468;28;20041;-30
2022/11/25 21:29:19;;;;;;;5.45;3.20;;;;;;;17.80;60.93;97527.50;10437050;28;20406;-29
2022/11/25 21:34:19;;;;;;;8.18;3.85;;;;;;;17.81;60.84;97526.66;10439180;28;20041;-30
2022/11/25 21:39:29;;;;;;;5.90;3.00;;;;;;;17.82;60.64;97533.47;10432139;28;20506;-29
2022/11/25 21:44:35;;;;;;;7.25;3.80;;;;;;;17.85;60.53;97531.81;10427227;28;20296;-29
2022/11/25 21:49:35;;;;;;;6.32;3.22;;;;;;;17.80;60.33;97522.44;10431571;28;20492;-29
2022/11/25 21:54:35;;;;;;;9.20;3.47;;;;;;;17.85;60.64;97538.56;10439277;28;20029;-30
2022/11/25 21:59:36;;;;;;;8.70;3.67;;;;;;;17.87;60.23;97544.50;10427955;28;20032;-30
2022/11/25 22:04:36;;;;;;;14.17;4.33;;;;;;;17.81;60.88;97554.53;10435065;28;20147;-30
2022/11/25 22:09:37;;;;;;;5.30;3.15;;;;;;;17.84;60.08;97559.66;10435815;28;20040;-30
2022/11/25 22:14:38;;;;;;;8.90;3.17;;;;;;;17.79;60.78;97562.13;10438989;28;20022;-29
2022/11/25 22:19:39;;;;;;;6.30;3.28;;;;;;;17.78;60.74;97564.63;10433797;28;20025;-30
2022/11/25 22:24:39;;;;;;;7.72;3.35;;;;;;;17.79;60.92;97561.25;10433849;28;20476;-30
2022/11/25 22:29:39;;;;;;;5.73;3.27;;;;;;;17.79;60.29;97551.13;10440157;28;20407;-30
2022/11/25 22:34:40;;;;;;;6.13;2.90;;;;;;;17.80;60.17;97553.69;10433622;28;20295;-30
2022/11/25 22:39:40;;;;;;;6.65;2.80;;;;;;;17.82;59.88;97562.16;10431607;28;20079;-30
2022/11/25 22:44:44;;;;;;;7.93;3.50;;;;;;;17.81;60.66;97564.66;10437273;28;20029;-30
2022/11/25 22:49:46;;;;;;;6.10;2.83;;;;;;;17.80;61.07;97558.75;10435441;28;20028;-30
2022/11/25 22:54:48;;;;;;;4.63;3.10;;;;;;;17.80;60.29;97561.28;10431699;28;20036;-31
2022/11/25 22:59:48;;;;;;;6.68;3.35;;;;;;;17.82;60.92;97569.75;10435368;28;20032;-30
2022/11/25 23:04:54;;;;;;;4.10;2.60;;;;;;;17.80;60.78;97568.00;10432220;28;20507;-31
2022/11/25 23:09:55;;;;;;;3.38;2.65;;;;;;;17.78;61.03;97564.63;10437869;28;20300;-30
2022/11/25 23:14:56;;;;;;;6.43;2.70;;;;;;;17.77;60.58;97568.84;10434843;28;20036;-30
2022/11/25 23:19:56;;;;;;;5.50;2.60;;;;;;;17.78;60.75;97574.75;10432521;28;20052;-30
2022/11/25 23:24:56;;;;;;;4.97;3.03;;;;;;;17.77;60.55;97575.59;10432922;28;20033;-30
2022/11/25 23:29:57;;;;;;;5.17;3.13;;;;;;;17.76;60.74;97586.53;10438689;28;20037;-30
2022/11/25 23:34:57;;;;;;;6.80;2.42;;;;;;;17.77;59.75;97578.13;10437266;28;20394;-31
2022/11/25 23:39:58;;;;;;;5.60;3.00;;;;;;;17.76;60.17;97584.00;10433254;28;20035;-30